Berry, Kentucky
Current Conditions -  °F | °C
As of 11:35 AM on Saturday 22 Nov 2014 (Local Time) from KFGX Reporting Station
Light Rain Light Rain  
Wind Chill: 54°   Ceiling: 7000
Heat Index: 54°   Visibility: 10mi
Dew Point: 32°   Wind: 14mph
Humidity: 44%   Direction: 210°SSW
Pressure: 30.28"   Gusts: NA
Location:  38.52°N, 84.38°W
Report Text: KFGX 221635Z AUTO 21012KT 10SM -RA BKN070 OVC090 12/00 A3028 RMK AO2 T01200000
Loading
Personal Weather Stations






























Interactive Weather Map New forecast layout! Learn more

10-Day Weather Forecast

Advertisements
Track Severe Weather on mobile